sensor_id;sensor_type;location;lat;lon;timestamp;P1;durP1;ratioP1;P2;durP2;ratioP2
10416;SDS011;62605;49.432;8.680;2023-03-01T00:00:18;4.97;;;3.03;;
10416;SDS011;62605;49.432;8.680;2023-03-01T00:02:46;5.80;;;3.30;;
10416;SDS011;62605;49.432;8.680;2023-03-01T00:05:15;3.97;;;2.93;;
10416;SDS011;62605;49.432;8.680;2023-03-01T00:07:42;4.80;;;3.57;;
10416;SDS011;62605;49.432;8.680;2023-03-01T00:10:09;6.33;;;3.47;;
10416;SDS011;62605;49.432;8.680;2023-03-01T00:12:37;4.43;;;2.90;;
10416;SDS011;62605;49.432;8.680;2023-03-01T00:15:04;7.60;;;3.73;;
10416;SDS011;62605;49.432;8.680;2023-03-01T00:17:32;2.83;;;2.33;;
10416;SDS011;62605;49.432;8.680;2023-03-01T00:19:59;6.13;;;4.07;;
10416;SDS011;62605;49.432;8.680;2023-03-01T00:22:27;6.30;;;3.70;;
10416;SDS011;62605;49.432;8.680;2023-03-01T00:24:54;7.00;;;3.87;;
10416;SDS011;62605;49.432;8.680;2023-03-01T00:27:22;6.00;;;3.50;;
10416;SDS011;62605;49.432;8.680;2023-03-01T00:29:49;3.83;;;3.23;;
10416;SDS011;62605;49.432;8.680;2023-03-01T00:32:16;5.17;;;3.57;;
10416;SDS011;62605;49.432;8.680;2023-03-01T00:34:43;4.97;;;3.50;;
10416;SDS011;62605;49.432;8.680;2023-03-01T00:37:19;6.50;;;3.40;;
10416;SDS011;62605;49.432;8.680;2023-03-01T00:39:47;5.83;;;3.30;;
10416;SDS011;62605;49.432;8.680;2023-03-01T00:42:15;6.10;;;3.47;;
10416;SDS011;62605;49.432;8.680;2023-03-01T00:44:42;7.53;;;3.27;;
10416;SDS011;62605;49.432;8.680;2023-03-01T00:47:09;6.33;;;4.47;;
10416;SDS011;62605;49.432;8.680;2023-03-01T00:49:36;5.83;;;3.50;;
10416;SDS011;62605;49.432;8.680;2023-03-01T00:52:03;5.90;;;4.03;;
10416;SDS011;62605;49.432;8.680;2023-03-01T00:54:30;7.23;;;4.27;;
10416;SDS011;62605;49.432;8.680;2023-03-01T00:56:59;6.33;;;3.90;;
10416;SDS011;62605;49.432;8.680;2023-03-01T00:59:26;5.43;;;3.57;;
10416;SDS011;62605;49.432;8.680;2023-03-01T01:01:53;6.97;;;3.40;;
10416;SDS011;62605;49.432;8.680;2023-03-01T01:04:20;5.90;;;4.03;;
10416;SDS011;62605;49.432;8.680;2023-03-01T01:06:47;7.40;;;4.23;;
10416;SDS011;62605;49.432;8.680;2023-03-01T01:09:15;8.60;;;4.47;;
10416;SDS011;62605;49.432;8.680;2023-03-01T01:11:44;9.20;;;3.50;;
10416;SDS011;62605;49.432;8.680;2023-03-01T01:14:13;5.80;;;3.63;;
10416;SDS011;62605;49.432;8.680;2023-03-01T01:16:40;5.40;;;3.27;;
10416;SDS011;62605;49.432;8.680;2023-03-01T01:19:09;6.07;;;4.10;;
10416;SDS011;62605;49.432;8.680;2023-03-01T01:21:39;10.20;;;4.30;;
10416;SDS011;62605;49.432;8.680;2023-03-01T01:24:08;5.63;;;3.90;;
10416;SDS011;62605;49.432;8.680;2023-03-01T01:26:37;8.07;;;3.83;;
10416;SDS011;62605;49.432;8.680;2023-03-01T01:29:06;5.57;;;3.40;;
10416;SDS011;62605;49.432;8.680;2023-03-01T01:34:59;6.03;;;3.33;;
10416;SDS011;62605;49.432;8.680;2023-03-01T01:37:26;12.03;;;4.53;;
10416;SDS011;62605;49.432;8.680;2023-03-01T01:39:56;4.37;;;3.37;;
10416;SDS011;62605;49.432;8.680;2023-03-01T01:42:24;5.20;;;3.97;;
10416;SDS011;62605;49.432;8.680;2023-03-01T01:47:53;6.20;;;3.77;;
10416;SDS011;62605;49.432;8.680;2023-03-01T01:50:25;6.20;;;4.33;;
10416;SDS011;62605;49.432;8.680;2023-03-01T01:52:58;8.17;;;4.30;;
10416;SDS011;62605;49.432;8.680;2023-03-01T01:55:25;6.27;;;4.10;;
10416;SDS011;62605;49.432;8.680;2023-03-01T01:57:55;10.40;;;4.67;;
10416;SDS011;62605;49.432;8.680;2023-03-01T02:00:26;7.27;;;4.50;;
10416;SDS011;62605;49.432;8.680;2023-03-01T02:02:56;5.43;;;3.70;;
10416;SDS011;62605;49.432;8.680;2023-03-01T02:05:28;9.63;;;4.23;;
10416;SDS011;62605;49.432;8.680;2023-03-01T02:08:01;6.07;;;3.63;;
10416;SDS011;62605;49.432;8.680;2023-03-01T02:10:29;7.57;;;4.17;;
10416;SDS011;62605;49.432;8.680;2023-03-01T02:13:00;11.80;;;5.07;;
10416;SDS011;62605;49.432;8.680;2023-03-01T02:15:28;9.70;;;4.53;;
10416;SDS011;62605;49.432;8.680;2023-03-01T02:17:59;12.90;;;5.17;;
10416;SDS011;62605;49.432;8.680;2023-03-01T02:20:29;9.57;;;3.30;;
10416;SDS011;62605;49.432;8.680;2023-03-01T02:23:03;6.20;;;3.60;;
10416;SDS011;62605;49.432;8.680;2023-03-01T02:25:37;8.30;;;4.90;;
10416;SDS011;62605;49.432;8.680;2023-03-01T02:28:21;7.13;;;4.23;;
10416;SDS011;62605;49.432;8.680;2023-03-01T02:30:58;7.57;;;4.03;;
10416;SDS011;62605;49.432;8.680;2023-03-01T02:33:44;6.30;;;4.13;;
10416;SDS011;62605;49.432;8.680;2023-03-01T02:36:15;4.53;;;3.07;;
10416;SDS011;62605;49.432;8.680;2023-03-01T02:38:45;6.93;;;4.90;;
10416;SDS011;62605;49.432;8.680;2023-03-01T02:41:13;7.40;;;4.50;;
10416;SDS011;62605;49.432;8.680;2023-03-01T02:43:45;9.63;;;4.77;;
10416;SDS011;62605;49.432;8.680;2023-03-01T02:46:16;10.03;;;4.87;;
10416;SDS011;62605;49.432;8.680;2023-03-01T02:48:45;6.37;;;3.87;;
10416;SDS011;62605;49.432;8.680;2023-03-01T02:51:21;8.27;;;4.10;;
10416;SDS011;62605;49.432;8.680;2023-03-01T02:53:56;6.97;;;4.50;;
10416;SDS011;62605;49.432;8.680;2023-03-01T02:56:34;8.43;;;4.70;;
10416;SDS011;62605;49.432;8.680;2023-03-01T02:59:03;5.73;;;4.10;;
10416;SDS011;62605;49.432;8.680;2023-03-01T03:01:31;7.37;;;4.17;;
10416;SDS011;62605;49.432;8.680;2023-03-01T03:04:03;7.60;;;4.57;;
10416;SDS011;62605;49.432;8.680;2023-03-01T03:06:31;10.83;;;5.10;;
10416;SDS011;62605;49.432;8.680;2023-03-01T03:08:58;9.03;;;4.63;;
10416;SDS011;62605;49.432;8.680;2023-03-01T03:11:26;8.37;;;4.03;;
10416;SDS011;62605;49.432;8.680;2023-03-01T03:13:53;8.27;;;4.00;;
10416;SDS011;62605;49.432;8.680;2023-03-01T03:16:22;8.50;;;4.17;;
10416;SDS011;62605;49.432;8.680;2023-03-01T03:18:50;9.10;;;5.00;;
10416;SDS011;62605;49.432;8.680;2023-03-01T03:21:17;7.13;;;4.03;;
10416;SDS011;62605;49.432;8.680;2023-03-01T03:23:44;8.00;;;4.40;;
10416;SDS011;62605;49.432;8.680;2023-03-01T03:26:11;8.37;;;4.50;;
10416;SDS011;62605;49.432;8.680;2023-03-01T03:28:40;8.60;;;4.80;;
10416;SDS011;62605;49.432;8.680;2023-03-01T03:31:07;9.13;;;4.67;;
10416;SDS011;62605;49.432;8.680;2023-03-01T03:33:36;6.97;;;3.60;;
10416;SDS011;62605;49.432;8.680;2023-03-01T03:36:03;7.47;;;4.30;;
10416;SDS011;62605;49.432;8.680;2023-03-01T03:38:32;7.00;;;4.47;;
10416;SDS011;62605;49.432;8.680;2023-03-01T03:41:00;9.43;;;4.37;;
10416;SDS011;62605;49.432;8.680;2023-03-01T03:43:33;11.00;;;4.93;;
10416;SDS011;62605;49.432;8.680;2023-03-01T03:46:09;9.20;;;4.43;;
10416;SDS011;62605;49.432;8.680;2023-03-01T03:48:39;8.37;;;4.60;;
10416;SDS011;62605;49.432;8.680;2023-03-01T03:51:23;11.43;;;5.23;;
10416;SDS011;62605;49.432;8.680;2023-03-01T03:54:18;10.97;;;5.03;;
10416;SDS011;62605;49.432;8.680;2023-03-01T03:56:47;6.33;;;3.93;;
10416;SDS011;62605;49.432;8.680;2023-03-01T03:59:16;5.93;;;4.00;;
10416;SDS011;62605;49.432;8.680;2023-03-01T04:01:48;11.03;;;4.43;;
10416;SDS011;62605;49.432;8.680;2023-03-01T04:04:36;6.57;;;4.03;;
10416;SDS011;62605;49.432;8.680;2023-03-01T04:07:07;8.13;;;4.37;;
10416;SDS011;62605;49.432;8.680;2023-03-01T04:09:35;10.73;;;4.47;;
10416;SDS011;62605;49.432;8.680;2023-03-01T04:12:04;7.83;;;4.43;;
10416;SDS011;62605;49.432;8.680;2023-03-01T04:14:31;7.53;;;4.40;;
10416;SDS011;62605;49.432;8.680;2023-03-01T04:17:08;10.27;;;4.03;;
10416;SDS011;62605;49.432;8.680;2023-03-01T04:19:40;8.67;;;4.60;;
10416;SDS011;62605;49.432;8.680;2023-03-01T04:22:11;13.10;;;5.50;;
10416;SDS011;62605;49.432;8.680;2023-03-01T04:24:42;6.97;;;3.57;;
10416;SDS011;62605;49.432;8.680;2023-03-01T04:27:13;7.57;;;4.17;;
10416;SDS011;62605;49.432;8.680;2023-03-01T04:29:40;8.87;;;4.27;;
10416;SDS011;62605;49.432;8.680;2023-03-01T04:32:07;12.43;;;5.63;;
10416;SDS011;62605;49.432;8.680;2023-03-01T04:34:34;8.87;;;3.77;;
10416;SDS011;62605;49.432;8.680;2023-03-01T04:37:06;7.03;;;4.40;;
10416;SDS011;62605;49.432;8.680;2023-03-01T04:39:34;11.13;;;5.50;;
10416;SDS011;62605;49.432;8.680;2023-03-01T04:42:12;7.57;;;4.67;;
10416;SDS011;62605;49.432;8.680;2023-03-01T04:44:39;7.30;;;4.63;;
10416;SDS011;62605;49.432;8.680;2023-03-01T04:47:14;11.43;;;5.23;;
10416;SDS011;62605;49.432;8.680;2023-03-01T04:49:48;8.53;;;4.60;;
10416;SDS011;62605;49.432;8.680;2023-03-01T04:52:17;7.60;;;4.07;;
10416;SDS011;62605;49.432;8.680;2023-03-01T04:54:50;8.00;;;4.63;;
10416;SDS011;62605;49.432;8.680;2023-03-01T04:57:17;6.87;;;4.17;;
10416;SDS011;62605;49.432;8.680;2023-03-01T04:59:45;8.07;;;4.23;;
10416;SDS011;62605;49.432;8.680;2023-03-01T05:02:15;9.77;;;5.03;;
10416;SDS011;62605;49.432;8.680;2023-03-01T05:04:42;8.20;;;4.83;;
10416;SDS011;62605;49.432;8.680;2023-03-01T05:07:31;11.30;;;5.10;;
10416;SDS011;62605;49.432;8.680;2023-03-01T05:10:00;9.03;;;5.13;;
10416;SDS011;62605;49.432;8.680;2023-03-01T05:12:34;9.03;;;5.33;;
10416;SDS011;62605;49.432;8.680;2023-03-01T05:15:03;11.10;;;5.20;;
10416;SDS011;62605;49.432;8.680;2023-03-01T05:17:35;7.63;;;4.97;;
10416;SDS011;62605;49.432;8.680;2023-03-01T05:20:10;9.17;;;5.07;;
10416;SDS011;62605;49.432;8.680;2023-03-01T05:22:38;7.97;;;4.90;;
10416;SDS011;62605;49.432;8.680;2023-03-01T05:25:10;7.67;;;4.63;;
10416;SDS011;62605;49.432;8.680;2023-03-01T05:27:42;10.73;;;5.00;;
10416;SDS011;62605;49.432;8.680;2023-03-01T05:30:09;11.17;;;4.70;;
10416;SDS011;62605;49.432;8.680;2023-03-01T05:32:47;11.27;;;4.87;;
10416;SDS011;62605;49.432;8.680;2023-03-01T05:35:21;8.00;;;4.87;;
10416;SDS011;62605;49.432;8.680;2023-03-01T05:37:49;10.57;;;5.03;;
10416;SDS011;62605;49.432;8.680;2023-03-01T05:40:18;8.73;;;5.30;;
10416;SDS011;62605;49.432;8.680;2023-03-01T05:42:46;8.00;;;5.27;;
10416;SDS011;62605;49.432;8.680;2023-03-01T05:45:15;14.27;;;5.80;;
10416;SDS011;62605;49.432;8.680;2023-03-01T05:47:43;8.60;;;4.43;;
10416;SDS011;62605;49.432;8.680;2023-03-01T05:50:12;8.90;;;4.43;;
10416;SDS011;62605;49.432;8.680;2023-03-01T05:52:45;11.43;;;5.80;;
10416;SDS011;62605;49.432;8.680;2023-03-01T05:55:14;11.93;;;5.73;;
10416;SDS011;62605;49.432;8.680;2023-03-01T05:57:41;7.90;;;4.37;;
10416;SDS011;62605;49.432;8.680;2023-03-01T06:00:09;8.73;;;5.13;;
10416;SDS011;62605;49.432;8.680;2023-03-01T06:02:37;6.47;;;4.13;;
10416;SDS011;62605;49.432;8.680;2023-03-01T06:05:05;11.60;;;5.30;;
10416;SDS011;62605;49.432;8.680;2023-03-01T06:07:34;10.23;;;4.93;;
10416;SDS011;62605;49.432;8.680;2023-03-01T06:10:03;9.53;;;5.10;;
10416;SDS011;62605;49.432;8.680;2023-03-01T06:12:39;9.10;;;4.83;;
10416;SDS011;62605;49.432;8.680;2023-03-01T06:15:21;12.33;;;4.63;;
10416;SDS011;62605;49.432;8.680;2023-03-01T06:17:53;8.73;;;5.47;;
10416;SDS011;62605;49.432;8.680;2023-03-01T06:20:28;10.43;;;5.70;;
10416;SDS011;62605;49.432;8.680;2023-03-01T06:22:58;11.50;;;5.40;;
10416;SDS011;62605;49.432;8.680;2023-03-01T06:25:36;10.33;;;5.63;;
10416;SDS011;62605;49.432;8.680;2023-03-01T06:28:06;9.73;;;5.30;;
10416;SDS011;62605;49.432;8.680;2023-03-01T06:30:33;11.43;;;5.93;;
10416;SDS011;62605;49.432;8.680;2023-03-01T06:33:00;9.00;;;4.90;;
10416;SDS011;62605;49.432;8.680;2023-03-01T06:35:29;10.47;;;5.17;;
10416;SDS011;62605;49.432;8.680;2023-03-01T06:37:57;8.40;;;4.73;;
10416;SDS011;62605;49.432;8.680;2023-03-01T06:40:25;12.13;;;5.47;;
10416;SDS011;62605;49.432;8.680;2023-03-01T06:42:53;10.80;;;6.07;;
10416;SDS011;62605;49.432;8.680;2023-03-01T06:45:20;7.40;;;4.80;;
10416;SDS011;62605;49.432;8.680;2023-03-01T06:47:47;10.50;;;5.00;;
10416;SDS011;62605;49.432;8.680;2023-03-01T06:50:15;14.97;;;5.83;;
10416;SDS011;62605;49.432;8.680;2023-03-01T06:52:43;11.93;;;5.17;;
10416;SDS011;62605;49.432;8.680;2023-03-01T06:55:10;12.03;;;6.27;;
10416;SDS011;62605;49.432;8.680;2023-03-01T06:57:38;13.60;;;6.23;;
10416;SDS011;62605;49.432;8.680;2023-03-01T07:00:08;9.63;;;5.30;;
10416;SDS011;62605;49.432;8.680;2023-03-01T07:02:36;11.90;;;4.60;;
10416;SDS011;62605;49.432;8.680;2023-03-01T07:05:03;9.43;;;5.07;;
10416;SDS011;62605;49.432;8.680;2023-03-01T07:07:31;7.47;;;4.93;;
10416;SDS011;62605;49.432;8.680;2023-03-01T07:09:58;10.77;;;5.83;;
10416;SDS011;62605;49.432;8.680;2023-03-01T07:12:25;8.83;;;5.77;;
10416;SDS011;62605;49.432;8.680;2023-03-01T07:14:52;10.80;;;5.97;;
10416;SDS011;62605;49.432;8.680;2023-03-01T07:17:20;8.30;;;4.73;;
10416;SDS011;62605;49.432;8.680;2023-03-01T07:19:47;10.70;;;5.17;;
10416;SDS011;62605;49.432;8.680;2023-03-01T07:22:14;8.87;;;5.10;;
10416;SDS011;62605;49.432;8.680;2023-03-01T07:24:41;7.17;;;4.17;;
10416;SDS011;62605;49.432;8.680;2023-03-01T07:27:09;8.13;;;4.73;;
10416;SDS011;62605;49.432;8.680;2023-03-01T07:29:36;10.77;;;5.77;;
10416;SDS011;62605;49.432;8.680;2023-03-01T07:32:03;9.20;;;5.00;;
10416;SDS011;62605;49.432;8.680;2023-03-01T07:34:32;8.63;;;3.93;;
10416;SDS011;62605;49.432;8.680;2023-03-01T07:36:59;14.50;;;4.90;;
10416;SDS011;62605;49.432;8.680;2023-03-01T07:39:28;8.27;;;4.70;;
10416;SDS011;62605;49.432;8.680;2023-03-01T07:41:55;8.37;;;5.03;;
10416;SDS011;62605;49.432;8.680;2023-03-01T07:44:22;9.80;;;4.77;;
10416;SDS011;62605;49.432;8.680;2023-03-01T07:46:49;9.33;;;4.70;;
10416;SDS011;62605;49.432;8.680;2023-03-01T07:49:17;9.53;;;5.20;;
10416;SDS011;62605;49.432;8.680;2023-03-01T07:51:45;9.13;;;4.30;;
10416;SDS011;62605;49.432;8.680;2023-03-01T07:54:12;7.87;;;4.73;;
10416;SDS011;62605;49.432;8.680;2023-03-01T07:56:39;7.17;;;4.80;;
10416;SDS011;62605;49.432;8.680;2023-03-01T07:59:06;9.10;;;4.90;;
10416;SDS011;62605;49.432;8.680;2023-03-01T08:01:33;10.47;;;4.80;;
10416;SDS011;62605;49.432;8.680;2023-03-01T08:04:00;10.37;;;5.03;;
10416;SDS011;62605;49.432;8.680;2023-03-01T08:06:29;8.97;;;4.70;;
10416;SDS011;62605;49.432;8.680;2023-03-01T08:08:58;8.50;;;4.30;;
10416;SDS011;62605;49.432;8.680;2023-03-01T08:11:25;15.10;;;5.57;;
10416;SDS011;62605;49.432;8.680;2023-03-01T08:13:53;9.33;;;4.40;;
10416;SDS011;62605;49.432;8.680;2023-03-01T08:16:30;14.33;;;5.07;;
10416;SDS011;62605;49.432;8.680;2023-03-01T08:19:18;7.97;;;4.90;;
10416;SDS011;62605;49.432;8.680;2023-03-01T08:21:45;7.90;;;4.87;;
10416;SDS011;62605;49.432;8.680;2023-03-01T08:24:14;11.60;;;5.17;;
10416;SDS011;62605;49.432;8.680;2023-03-01T08:26:41;9.73;;;5.40;;
10416;SDS011;62605;49.432;8.680;2023-03-01T08:29:08;9.90;;;5.23;;
10416;SDS011;62605;49.432;8.680;2023-03-01T08:31:36;9.13;;;5.00;;
10416;SDS011;62605;49.432;8.680;2023-03-01T08:34:06;10.70;;;5.70;;
10416;SDS011;62605;49.432;8.680;2023-03-01T08:36:35;7.13;;;4.83;;
10416;SDS011;62605;49.432;8.680;2023-03-01T08:39:03;9.93;;;5.53;;
10416;SDS011;62605;49.432;8.680;2023-03-01T08:41:32;9.77;;;5.43;;
10416;SDS011;62605;49.432;8.680;2023-03-01T08:43:59;10.27;;;5.50;;
10416;SDS011;62605;49.432;8.680;2023-03-01T08:46:26;11.30;;;4.00;;
10416;SDS011;62605;49.432;8.680;2023-03-01T08:48:53;9.77;;;5.67;;
10416;SDS011;62605;49.432;8.680;2023-03-01T08:51:21;10.40;;;5.77;;
10416;SDS011;62605;49.432;8.680;2023-03-01T08:53:50;12.13;;;6.23;;
10416;SDS011;62605;49.432;8.680;2023-03-01T08:56:17;13.80;;;5.67;;
10416;SDS011;62605;49.432;8.680;2023-03-01T08:58:46;8.00;;;5.07;;
10416;SDS011;62605;49.432;8.680;2023-03-01T09:01:14;10.97;;;5.77;;
10416;SDS011;62605;49.432;8.680;2023-03-01T09:03:43;9.80;;;5.30;;
10416;SDS011;62605;49.432;8.680;2023-03-01T09:06:10;8.70;;;5.03;;
10416;SDS011;62605;49.432;8.680;2023-03-01T09:08:39;11.43;;;5.97;;
10416;SDS011;62605;49.432;8.680;2023-03-01T09:11:07;11.77;;;5.83;;
10416;SDS011;62605;49.432;8.680;2023-03-01T09:13:37;12.63;;;5.67;;
10416;SDS011;62605;49.432;8.680;2023-03-01T09:16:07;13.93;;;6.40;;
10416;SDS011;62605;49.432;8.680;2023-03-01T09:18:35;13.40;;;6.10;;
10416;SDS011;62605;49.432;8.680;2023-03-01T09:21:03;15.97;;;6.70;;
10416;SDS011;62605;49.432;8.680;2023-03-01T09:23:32;10.73;;;5.63;;
10416;SDS011;62605;49.432;8.680;2023-03-01T09:26:01;10.87;;;5.20;;
10416;SDS011;62605;49.432;8.680;2023-03-01T09:28:28;10.07;;;6.07;;
10416;SDS011;62605;49.432;8.680;2023-03-01T09:30:57;12.73;;;6.33;;
10416;SDS011;62605;49.432;8.680;2023-03-01T09:33:26;12.87;;;6.00;;
10416;SDS011;62605;49.432;8.680;2023-03-01T09:35:56;11.00;;;5.50;;
10416;SDS011;62605;49.432;8.680;2023-03-01T09:38:23;11.43;;;6.20;;
10416;SDS011;62605;49.432;8.680;2023-03-01T09:40:50;13.87;;;6.27;;
10416;SDS011;62605;49.432;8.680;2023-03-01T09:43:19;9.53;;;6.27;;
10416;SDS011;62605;49.432;8.680;2023-03-01T09:45:49;9.57;;;5.87;;
10416;SDS011;62605;49.432;8.680;2023-03-01T09:48:18;18.17;;;7.03;;
10416;SDS011;62605;49.432;8.680;2023-03-01T09:50:50;12.77;;;6.43;;
10416;SDS011;62605;49.432;8.680;2023-03-01T09:53:19;12.77;;;6.33;;
10416;SDS011;62605;49.432;8.680;2023-03-01T09:55:49;10.37;;;5.57;;
10416;SDS011;62605;49.432;8.680;2023-03-01T09:58:38;12.10;;;6.30;;
10416;SDS011;62605;49.432;8.680;2023-03-01T10:01:26;11.77;;;6.73;;
10416;SDS011;62605;49.432;8.680;2023-03-01T10:04:02;12.90;;;6.87;;
10416;SDS011;62605;49.432;8.680;2023-03-01T10:06:43;9.77;;;5.40;;
10416;SDS011;62605;49.432;8.680;2023-03-01T10:09:24;12.17;;;6.47;;
10416;SDS011;62605;49.432;8.680;2023-03-01T10:11:55;12.60;;;7.00;;
10416;SDS011;62605;49.432;8.680;2023-03-01T10:14:27;13.23;;;6.47;;
10416;SDS011;62605;49.432;8.680;2023-03-01T10:16:59;10.27;;;5.40;;
10416;SDS011;62605;49.432;8.680;2023-03-01T10:19:30;10.73;;;5.47;;
10416;SDS011;62605;49.432;8.680;2023-03-01T10:22:02;10.97;;;5.90;;
10416;SDS011;62605;49.432;8.680;2023-03-01T10:24:34;10.10;;;6.10;;
10416;SDS011;62605;49.432;8.680;2023-03-01T10:27:04;11.10;;;6.67;;
10416;SDS011;62605;49.432;8.680;2023-03-01T10:29:34;9.17;;;5.27;;
10416;SDS011;62605;49.432;8.680;2023-03-01T10:32:08;10.23;;;5.60;;
10416;SDS011;62605;49.432;8.680;2023-03-01T10:34:37;10.30;;;5.57;;
10416;SDS011;62605;49.432;8.680;2023-03-01T10:37:10;12.27;;;6.07;;
10416;SDS011;62605;49.432;8.680;2023-03-01T10:39:53;9.53;;;5.43;;
10416;SDS011;62605;49.432;8.680;2023-03-01T10:42:25;9.93;;;5.80;;
10416;SDS011;62605;49.432;8.680;2023-03-01T10:44:55;9.77;;;5.80;;
10416;SDS011;62605;49.432;8.680;2023-03-01T10:47:23;14.27;;;6.47;;
10416;SDS011;62605;49.432;8.680;2023-03-01T10:49:52;12.10;;;6.03;;
10416;SDS011;62605;49.432;8.680;2023-03-01T10:52:26;9.73;;;6.07;;
10416;SDS011;62605;49.432;8.680;2023-03-01T10:54:57;11.30;;;5.90;;
10416;SDS011;62605;49.432;8.680;2023-03-01T10:57:33;12.10;;;5.83;;
10416;SDS011;62605;49.432;8.680;2023-03-01T11:02:48;8.87;;;4.73;;
10416;SDS011;62605;49.432;8.680;2023-03-01T11:05:18;13.17;;;5.67;;
10416;SDS011;62605;49.432;8.680;2023-03-01T11:07:51;12.93;;;6.07;;
10416;SDS011;62605;49.432;8.680;2023-03-01T11:10:21;9.47;;;5.37;;
10416;SDS011;62605;49.432;8.680;2023-03-01T11:12:50;8.13;;;5.27;;
10416;SDS011;62605;49.432;8.680;2023-03-01T11:15:23;9.37;;;5.60;;
10416;SDS011;62605;49.432;8.680;2023-03-01T11:17:52;8.80;;;5.23;;
10416;SDS011;62605;49.432;8.680;2023-03-01T11:20:24;10.60;;;5.33;;
10416;SDS011;62605;49.432;8.680;2023-03-01T11:22:55;7.83;;;4.53;;
10416;SDS011;62605;49.432;8.680;2023-03-01T11:25:27;7.77;;;4.90;;
10416;SDS011;62605;49.432;8.680;2023-03-01T11:27:58;9.30;;;5.57;;
10416;SDS011;62605;49.432;8.680;2023-03-01T11:30:27;11.20;;;5.67;;
10416;SDS011;62605;49.432;8.680;2023-03-01T11:33:05;6.57;;;4.90;;
10416;SDS011;62605;49.432;8.680;2023-03-01T11:35:44;7.40;;;4.53;;
10416;SDS011;62605;49.432;8.680;2023-03-01T11:38:19;10.37;;;5.57;;
10416;SDS011;62605;49.432;8.680;2023-03-01T11:40:50;11.03;;;5.83;;
10416;SDS011;62605;49.432;8.680;2023-03-01T11:43:26;10.67;;;6.17;;
10416;SDS011;62605;49.432;8.680;2023-03-01T11:49:00;8.40;;;5.03;;
10416;SDS011;62605;49.432;8.680;2023-03-01T11:51:41;9.77;;;5.60;;
10416;SDS011;62605;49.432;8.680;2023-03-01T11:54:26;10.40;;;5.63;;
10416;SDS011;62605;49.432;8.680;2023-03-01T11:57:03;9.73;;;5.50;;
10416;SDS011;62605;49.432;8.680;2023-03-01T11:59:47;13.33;;;6.47;;
10416;SDS011;62605;49.432;8.680;2023-03-01T12:02:29;12.83;;;6.33;;
10416;SDS011;62605;49.432;8.680;2023-03-01T12:05:24;9.27;;;5.23;;
10416;SDS011;62605;49.432;8.680;2023-03-01T12:08:13;9.77;;;5.17;;
10416;SDS011;62605;49.432;8.680;2023-03-01T12:10:50;9.17;;;5.23;;
10416;SDS011;62605;49.432;8.680;2023-03-01T12:13:27;9.77;;;5.10;;
10416;SDS011;62605;49.432;8.680;2023-03-01T12:16:23;12.13;;;5.63;;
10416;SDS011;62605;49.432;8.680;2023-03-01T12:19:14;9.83;;;4.80;;
10416;SDS011;62605;49.432;8.680;2023-03-01T12:21:57;8.57;;;5.27;;
10416;SDS011;62605;49.432;8.680;2023-03-01T12:24:39;7.10;;;5.13;;
10416;SDS011;62605;49.432;8.680;2023-03-01T12:27:37;10.40;;;5.70;;
10416;SDS011;62605;49.432;8.680;2023-03-01T12:30:19;11.57;;;5.13;;
10416;SDS011;62605;49.432;8.680;2023-03-01T12:33:00;10.80;;;5.80;;
10416;SDS011;62605;49.432;8.680;2023-03-01T12:35:42;8.23;;;5.20;;
10416;SDS011;62605;49.432;8.680;2023-03-01T12:38:24;9.37;;;4.63;;
10416;SDS011;62605;49.432;8.680;2023-03-01T12:41:10;9.27;;;5.90;;
10416;SDS011;62605;49.432;8.680;2023-03-01T12:44:04;9.83;;;5.73;;
10416;SDS011;62605;49.432;8.680;2023-03-01T12:46:43;8.87;;;5.80;;
10416;SDS011;62605;49.432;8.680;2023-03-01T12:49:31;7.77;;;5.47;;
10416;SDS011;62605;49.432;8.680;2023-03-01T12:52:03;8.03;;;5.23;;
10416;SDS011;62605;49.432;8.680;2023-03-01T12:54:39;9.43;;;5.53;;
10416;SDS011;62605;49.432;8.680;2023-03-01T12:57:09;10.03;;;5.80;;
10416;SDS011;62605;49.432;8.680;2023-03-01T12:59:45;7.03;;;4.43;;
10416;SDS011;62605;49.432;8.680;2023-03-01T13:02:23;9.53;;;5.17;;
10416;SDS011;62605;49.432;8.680;2023-03-01T13:05:06;6.93;;;4.50;;
10416;SDS011;62605;49.432;8.680;2023-03-01T13:07:49;6.80;;;5.00;;
10416;SDS011;62605;49.432;8.680;2023-03-01T13:10:26;8.93;;;5.13;;
10416;SDS011;62605;49.432;8.680;2023-03-01T13:13:10;9.93;;;5.47;;
10416;SDS011;62605;49.432;8.680;2023-03-01T13:15:45;8.20;;;5.53;;
10416;SDS011;62605;49.432;8.680;2023-03-01T13:20:58;7.93;;;5.13;;
10416;SDS011;62605;49.432;8.680;2023-03-01T13:23:28;10.20;;;5.47;;
10416;SDS011;62605;49.432;8.680;2023-03-01T13:26:01;7.87;;;5.40;;
10416;SDS011;62605;49.432;8.680;2023-03-01T13:28:38;8.33;;;4.80;;
10416;SDS011;62605;49.432;8.680;2023-03-01T13:31:09;7.83;;;4.77;;
10416;SDS011;62605;49.432;8.680;2023-03-01T13:33:40;7.40;;;5.20;;
10416;SDS011;62605;49.432;8.680;2023-03-01T13:36:11;11.67;;;5.23;;
10416;SDS011;62605;49.432;8.680;2023-03-01T13:39:25;10.27;;;5.63;;
10416;SDS011;62605;49.432;8.680;2023-03-01T13:41:56;8.07;;;5.17;;
10416;SDS011;62605;49.432;8.680;2023-03-01T13:44:25;8.43;;;5.67;;
10416;SDS011;62605;49.432;8.680;2023-03-01T13:46:58;9.23;;;5.50;;
10416;SDS011;62605;49.432;8.680;2023-03-01T13:49:31;9.37;;;5.37;;
10416;SDS011;62605;49.432;8.680;2023-03-01T13:52:13;8.27;;;4.93;;
10416;SDS011;62605;49.432;8.680;2023-03-01T13:54:56;7.03;;;4.93;;
10416;SDS011;62605;49.432;8.680;2023-03-01T13:57:26;8.23;;;4.50;;
10416;SDS011;62605;49.432;8.680;2023-03-01T13:59:58;8.27;;;5.77;;
10416;SDS011;62605;49.432;8.680;2023-03-01T14:02:27;8.40;;;5.10;;
10416;SDS011;62605;49.432;8.680;2023-03-01T14:04:57;7.80;;;4.50;;
10416;SDS011;62605;49.432;8.680;2023-03-01T14:07:25;9.13;;;4.67;;
10416;SDS011;62605;49.432;8.680;2023-03-01T14:09:55;7.53;;;4.67;;
10416;SDS011;62605;49.432;8.680;2023-03-01T14:12:32;10.90;;;5.43;;
10416;SDS011;62605;49.432;8.680;2023-03-01T14:15:06;8.13;;;4.33;;
10416;SDS011;62605;49.432;8.680;2023-03-01T14:17:57;7.10;;;4.80;;
10416;SDS011;62605;49.432;8.680;2023-03-01T14:20:30;7.07;;;4.20;;
10416;SDS011;62605;49.432;8.680;2023-03-01T14:23:09;10.93;;;4.83;;
10416;SDS011;62605;49.432;8.680;2023-03-01T14:25:46;7.93;;;4.70;;
10416;SDS011;62605;49.432;8.680;2023-03-01T14:28:16;10.03;;;5.17;;
10416;SDS011;62605;49.432;8.680;2023-03-01T14:30:46;8.50;;;4.57;;
10416;SDS011;62605;49.432;8.680;2023-03-01T14:33:22;9.47;;;3.93;;
10416;SDS011;62605;49.432;8.680;2023-03-01T14:35:54;6.67;;;4.23;;
10416;SDS011;62605;49.432;8.680;2023-03-01T14:38:28;7.33;;;4.60;;
10416;SDS011;62605;49.432;8.680;2023-03-01T14:40:58;9.80;;;5.03;;
10416;SDS011;62605;49.432;8.680;2023-03-01T14:43:28;6.37;;;4.47;;
10416;SDS011;62605;49.432;8.680;2023-03-01T14:45:56;7.67;;;5.03;;
10416;SDS011;62605;49.432;8.680;2023-03-01T14:48:27;9.33;;;5.53;;
10416;SDS011;62605;49.432;8.680;2023-03-01T14:50:55;10.37;;;4.57;;
10416;SDS011;62605;49.432;8.680;2023-03-01T14:53:23;8.17;;;4.70;;
10416;SDS011;62605;49.432;8.680;2023-03-01T14:55:53;7.83;;;5.07;;
10416;SDS011;62605;49.432;8.680;2023-03-01T14:58:23;8.77;;;4.90;;
10416;SDS011;62605;49.432;8.680;2023-03-01T15:00:53;11.00;;;4.73;;
10416;SDS011;62605;49.432;8.680;2023-03-01T15:03:27;7.93;;;4.43;;
10416;SDS011;62605;49.432;8.680;2023-03-01T15:05:59;6.73;;;4.50;;
10416;SDS011;62605;49.432;8.680;2023-03-01T15:08:28;8.53;;;4.63;;
10416;SDS011;62605;49.432;8.680;2023-03-01T15:10:59;8.20;;;4.70;;
10416;SDS011;62605;49.432;8.680;2023-03-01T15:13:31;9.93;;;4.53;;
10416;SDS011;62605;49.432;8.680;2023-03-01T15:16:03;8.63;;;4.80;;
10416;SDS011;62605;49.432;8.680;2023-03-01T15:18:42;7.17;;;4.20;;
10416;SDS011;62605;49.432;8.680;2023-03-01T15:21:16;6.73;;;4.47;;
10416;SDS011;62605;49.432;8.680;2023-03-01T15:23:49;7.60;;;4.37;;